createdAt,value
2018-10-05T00:01:43.224Z,12.62
2018-10-05T00:04:12.666Z,12.62
2018-10-05T00:06:42.077Z,12.60
2018-10-05T00:09:13.085Z,12.58
2018-10-05T00:11:42.972Z,12.58
2018-10-05T00:14:12.816Z,12.58
2018-10-05T00:16:42.664Z,12.58
2018-10-05T00:19:12.511Z,12.59
2018-10-05T00:21:42.451Z,12.58
2018-10-05T00:24:12.310Z,12.58
2018-10-05T00:26:42.197Z,12.56
2018-10-05T00:29:12.061Z,12.55
2018-10-05T00:31:41.481Z,12.54
2018-10-05T00:34:11.042Z,12.50
2018-10-05T00:36:40.900Z,12.55
2018-10-05T00:39:11.609Z,12.31
2018-10-05T00:41:41.427Z,12.55
2018-10-05T00:44:10.920Z,12.55
2018-10-05T00:46:40.876Z,12.55
2018-10-05T00:49:10.395Z,12.55
2018-10-05T00:51:39.917Z,12.54
2018-10-05T00:54:09.822Z,12.53
2018-10-05T00:56:39.835Z,12.52
2018-10-05T00:59:09.823Z,12.51
2018-10-05T01:01:39.287Z,12.51
2018-10-05T01:04:09.194Z,12.52
2018-10-05T01:06:38.665Z,12.53
2018-10-05T01:09:08.820Z,12.54
2018-10-05T01:11:39.098Z,12.55
2018-10-05T01:14:09.106Z,12.55
2018-10-05T01:16:39.034Z,12.55
2018-10-05T01:19:08.636Z,12.56
2018-10-05T01:21:38.300Z,12.57
2018-10-05T01:24:08.183Z,12.57
2018-10-05T01:26:37.735Z,12.57
2018-10-05T01:29:07.910Z,12.58
2018-10-05T01:31:37.841Z,12.59
2018-10-05T01:34:07.785Z,12.59
2018-10-05T01:36:37.927Z,12.59
2018-10-05T01:39:08.166Z,12.59
2018-10-05T01:41:38.015Z,12.60
2018-10-05T01:44:07.589Z,12.59
2018-10-05T01:46:37.595Z,12.61
2018-10-05T01:49:07.159Z,12.62
2018-10-05T01:51:38.458Z,12.62
2018-10-05T01:54:08.090Z,12.62
2018-10-05T01:56:37.987Z,12.64
2018-10-05T01:59:07.840Z,12.62
2018-10-05T02:01:37.638Z,12.61
2018-10-05T02:04:07.044Z,12.61
2018-10-05T02:06:36.852Z,12.59
2018-10-05T02:09:07.267Z,12.56
2018-10-05T02:11:36.789Z,12.49
2018-10-05T02:14:06.646Z,12.32
2018-10-05T02:16:36.574Z,12.08
2018-10-05T02:19:06.417Z,11.83
2018-10-05T02:21:35.946Z,11.59
2018-10-05T02:24:05.738Z,11.42
2018-10-05T02:26:35.599Z,11.26
2018-10-05T02:29:05.094Z,11.13
2018-10-05T02:31:35.035Z,10.99
2018-10-05T02:34:04.570Z,10.91
2018-10-05T02:36:34.006Z,11.21
2018-10-05T02:39:04.778Z,11.39
2018-10-05T02:41:34.673Z,11.65
2018-10-05T02:44:04.694Z,11.35
2018-10-05T02:46:34.345Z,11.05
2018-10-05T02:49:04.809Z,11.28
2018-10-05T02:51:34.430Z,11.36
2018-10-05T02:54:04.382Z,10.99
2018-10-05T02:56:33.834Z,10.75
2018-10-05T02:59:04.094Z,10.46
2018-10-05T03:01:50.734Z,10.20
2018-10-05T03:04:20.510Z,10.02
2018-10-05T03:06:50.544Z,9.87
2018-10-05T03:09:19.990Z,9.72
2018-10-05T03:11:49.440Z,9.71
2018-10-05T03:14:19.018Z,9.63
2018-10-05T03:16:48.670Z,9.51
2018-10-05T03:19:18.570Z,9.42
2018-10-05T03:21:48.410Z,9.34
2018-10-05T03:24:17.932Z,9.19
2018-10-05T03:26:47.848Z,9.08
2018-10-05T03:29:17.844Z,9.21
2018-10-05T03:31:47.730Z,9.19
2018-10-05T03:34:17.417Z,9.04
2018-10-05T03:36:47.393Z,8.90
2018-10-05T03:39:17.316Z,8.79
2018-10-05T03:41:46.821Z,8.68
2018-10-05T03:44:16.761Z,8.65
2018-10-05T03:46:46.753Z,8.56
2018-10-05T03:49:16.497Z,8.61
2018-10-05T03:51:46.065Z,8.60
2018-10-05T03:54:15.942Z,8.53
2018-10-05T03:56:45.703Z,8.55
2018-10-05T03:59:16.091Z,8.50
2018-10-05T04:01:45.911Z,8.48
2018-10-05T04:04:15.719Z,8.46
2018-10-05T04:06:45.669Z,8.36
2018-10-05T04:09:15.321Z,8.26
2018-10-05T04:11:44.874Z,8.25
2018-10-05T04:14:14.787Z,8.19
2018-10-05T04:16:44.207Z,8.16
2018-10-05T04:19:14.177Z,8.15
2018-10-05T04:21:44.135Z,8.23
2018-10-05T04:24:14.065Z,8.20
2018-10-05T04:26:43.978Z,8.16
2018-10-05T04:29:13.359Z,8.18
2018-10-05T04:31:42.761Z,8.09
2018-10-05T04:34:12.636Z,8.07
2018-10-05T04:36:42.755Z,7.98
2018-10-05T04:39:12.506Z,7.94
2018-10-05T04:41:41.949Z,7.85
2018-10-05T04:44:11.427Z,7.88
2018-10-05T04:46:41.249Z,7.87
2018-10-05T04:49:10.993Z,8.02
2018-10-05T04:51:40.731Z,7.94
2018-10-05T04:54:11.449Z,7.99
2018-10-05T04:56:40.927Z,7.97
2018-10-05T04:59:10.656Z,7.91
2018-10-05T05:01:40.461Z,7.86
2018-10-05T05:04:09.915Z,7.83
2018-10-05T05:06:39.737Z,7.88
2018-10-05T05:09:10.258Z,7.78
2018-10-05T05:11:39.966Z,7.78
2018-10-05T05:14:09.970Z,7.78
2018-10-05T05:16:40.675Z,7.74
2018-10-05T05:19:11.417Z,7.76
2018-10-05T05:21:40.807Z,7.77
2018-10-05T05:24:10.271Z,7.80
2018-10-05T05:26:40.099Z,7.82
2018-10-05T05:29:09.579Z,7.82
2018-10-05T05:31:39.041Z,7.85
2018-10-05T05:34:08.416Z,7.91
2018-10-05T05:36:37.834Z,7.90
2018-10-05T05:39:07.948Z,7.92
2018-10-05T05:41:37.847Z,7.96
2018-10-05T05:44:07.758Z,8.02
2018-10-05T05:46:37.651Z,8.09
2018-10-05T05:49:07.268Z,8.16
2018-10-05T05:51:37.214Z,8.22
2018-10-05T05:54:06.918Z,8.29
2018-10-05T05:56:36.385Z,8.36
2018-10-05T05:59:06.281Z,8.43
2018-10-05T06:01:36.040Z,8.50
2018-10-05T06:04:06.727Z,8.58
2018-10-05T06:06:36.184Z,8.63
2018-10-05T06:09:09.060Z,8.71
2018-10-05T06:11:38.501Z,8.79
2018-10-05T06:14:08.146Z,8.90
2018-10-05T06:16:37.524Z,9.00
2018-10-05T06:19:07.326Z,9.09
2018-10-05T06:21:36.780Z,9.25
2018-10-05T06:24:06.304Z,9.38
2018-10-05T06:26:36.088Z,9.52
2018-10-05T06:29:05.997Z,9.63
2018-10-05T06:31:35.466Z,9.71
2018-10-05T06:34:04.843Z,9.83
2018-10-05T06:36:34.702Z,9.95
2018-10-05T06:39:05.801Z,10.03
2018-10-05T06:41:35.619Z,10.18
2018-10-05T06:44:05.096Z,10.26
2018-10-05T06:46:35.103Z,10.32
2018-10-05T06:49:05.163Z,10.39
2018-10-05T06:51:34.634Z,10.47
2018-10-05T06:54:04.457Z,10.57
2018-10-05T06:56:34.216Z,10.68
2018-10-05T06:59:03.603Z,10.79
2018-10-05T07:01:33.389Z,10.87
2018-10-05T07:04:03.200Z,10.96
2018-10-05T07:06:32.634Z,11.05
2018-10-05T07:09:02.460Z,11.15
2018-10-05T07:11:32.227Z,11.22
2018-10-05T07:14:01.992Z,11.37
2018-10-05T07:16:31.951Z,11.46
2018-10-05T07:19:01.803Z,11.53
2018-10-05T07:21:31.733Z,11.62
2018-10-05T07:24:00.980Z,11.67
2018-10-05T07:26:30.691Z,11.80
2018-10-05T07:29:00.599Z,11.92
2018-10-05T07:31:29.922Z,11.99
2018-10-05T07:33:59.729Z,12.06
2018-10-05T07:36:29.463Z,12.15
2018-10-05T07:38:59.217Z,12.26
2018-10-05T07:41:28.591Z,12.46
2018-10-05T07:43:58.396Z,12.68
2018-10-05T07:46:28.194Z,12.86
2018-10-05T07:48:57.635Z,13.02
2018-10-05T07:51:27.368Z,13.23
2018-10-05T07:53:57.204Z,13.24
2018-10-05T07:56:26.657Z,13.28
2018-10-05T07:58:56.554Z,13.36
2018-10-05T08:01:25.908Z,13.59
2018-10-05T08:03:55.339Z,13.72
2018-10-05T08:06:25.141Z,13.87
2018-10-05T08:08:54.912Z,13.89
2018-10-05T08:11:24.451Z,14.01
2018-10-05T08:13:54.348Z,14.02
2018-10-05T08:16:24.255Z,14.12
2018-10-05T08:18:54.138Z,14.13
2018-10-05T08:21:23.662Z,14.17
2018-10-05T08:23:53.210Z,14.37
2018-10-05T08:26:22.947Z,14.67
2018-10-05T08:28:52.423Z,14.75
2018-10-05T08:31:22.303Z,14.74
2018-10-05T08:33:52.212Z,14.75
2018-10-05T08:36:21.613Z,14.71
2018-10-05T08:38:51.083Z,14.79
2018-10-05T08:41:20.876Z,15.08
2018-10-05T08:43:50.399Z,15.30
2018-10-05T08:46:20.223Z,15.20
2018-10-05T08:48:50.295Z,15.20
2018-10-05T08:51:19.903Z,15.13
2018-10-05T08:53:49.449Z,15.19
2018-10-05T08:56:19.271Z,15.36
2018-10-05T08:58:48.799Z,15.52
2018-10-05T09:01:19.115Z,15.65
2018-10-05T09:03:48.917Z,15.57
2018-10-05T09:06:18.772Z,15.51
2018-10-05T09:08:48.615Z,15.62
2018-10-05T09:11:18.493Z,15.53
2018-10-05T09:13:48.098Z,15.43
2018-10-05T09:16:17.930Z,15.43
2018-10-05T09:18:47.404Z,15.48
2018-10-05T09:21:17.223Z,15.57
2018-10-05T09:23:47.125Z,15.59
2018-10-05T09:26:16.610Z,15.99
2018-10-05T09:28:46.455Z,15.98
2018-10-05T09:31:16.459Z,16.04
2018-10-05T09:33:45.875Z,16.09
2018-10-05T09:36:15.731Z,16.07
2018-10-05T09:38:46.049Z,16.11
2018-10-05T09:41:15.812Z,16.16
2018-10-05T09:43:45.622Z,16.25
2018-10-05T09:46:15.419Z,16.28
2018-10-05T09:48:44.890Z,16.36
2018-10-05T09:51:14.314Z,16.25
2018-10-05T09:53:44.060Z,16.27
2018-10-05T09:56:13.862Z,16.47
2018-10-05T09:58:43.272Z,16.60
2018-10-05T10:01:17.814Z,16.74
2018-10-05T10:03:47.650Z,16.73
2018-10-05T10:06:17.108Z,16.65
2018-10-05T10:08:46.870Z,16.73
2018-10-05T10:11:16.715Z,17.04
2018-10-05T10:13:46.226Z,17.18
2018-10-05T10:16:16.790Z,17.14
2018-10-05T10:18:46.194Z,16.95
2018-10-05T10:21:15.618Z,16.95
2018-10-05T10:23:45.055Z,16.97
2018-10-05T10:26:14.942Z,17.01
2018-10-05T10:28:45.081Z,17.10
2018-10-05T10:31:14.653Z,17.15
2018-10-05T10:33:44.422Z,17.17
2018-10-05T10:36:14.244Z,17.08
2018-10-05T10:38:43.642Z,17.05
2018-10-05T10:41:13.432Z,17.13
2018-10-05T10:43:43.231Z,17.23
2018-10-05T10:46:12.684Z,17.29
2018-10-05T10:48:42.439Z,17.31
2018-10-05T10:51:12.195Z,17.35
2018-10-05T10:53:41.745Z,17.57
2018-10-05T10:56:11.799Z,17.81
2018-10-05T10:58:41.555Z,17.80
2018-10-05T11:01:11.053Z,17.62
2018-10-05T11:03:40.887Z,17.50
2018-10-05T11:06:10.634Z,17.54
2018-10-05T11:08:40.492Z,17.74
2018-10-05T11:11:09.992Z,17.83
2018-10-05T11:13:39.738Z,17.86
2018-10-05T11:16:09.555Z,17.94
2018-10-05T11:18:39.046Z,17.99
2018-10-05T11:21:08.990Z,18.05
2018-10-05T11:23:38.860Z,18.04
2018-10-05T11:26:08.306Z,17.98
2018-10-05T11:28:38.158Z,18.01
2018-10-05T11:31:07.576Z,18.22
2018-10-05T11:33:36.998Z,18.22
2018-10-05T11:36:06.790Z,18.26
2018-10-05T11:38:36.344Z,18.25
2018-10-05T11:41:06.260Z,18.21
2018-10-05T11:43:36.054Z,18.26
2018-10-05T11:46:05.876Z,18.29
2018-10-05T11:48:35.676Z,18.37
2018-10-05T11:51:05.158Z,18.47
2018-10-05T11:53:34.650Z,18.50
2018-10-05T11:56:04.550Z,18.56
2018-10-05T11:58:33.939Z,18.58
2018-10-05T12:01:03.390Z,18.63
2018-10-05T12:03:33.155Z,18.63
2018-10-05T12:06:02.825Z,18.71
2018-10-05T12:08:32.270Z,18.56
2018-10-05T12:11:02.118Z,18.46
2018-10-05T12:13:31.564Z,18.46
2018-10-05T12:16:01.379Z,18.45
2018-10-05T12:18:31.206Z,18.39
2018-10-05T12:21:00.690Z,18.35
2018-10-05T12:23:30.559Z,18.44
2018-10-05T12:26:00.400Z,18.52
2018-10-05T12:28:30.189Z,18.55
2018-10-05T12:30:59.784Z,18.61
2018-10-05T12:33:29.523Z,18.62
2018-10-05T12:35:59.290Z,18.63
2018-10-05T12:38:28.714Z,18.67
2018-10-05T12:40:58.104Z,18.83
2018-10-05T12:43:27.727Z,18.91
2018-10-05T12:45:57.788Z,19.07
2018-10-05T12:48:27.573Z,18.88
2018-10-05T12:50:57.396Z,18.71
2018-10-05T12:53:27.165Z,18.56
2018-10-05T12:55:57.363Z,18.53
2018-10-05T12:58:27.276Z,18.44
2018-10-05T13:00:57.814Z,18.43
2018-10-05T13:03:27.440Z,18.37
2018-10-05T13:05:57.788Z,18.33
2018-10-05T13:08:30.284Z,18.36
2018-10-05T13:11:00.017Z,18.27
2018-10-05T13:13:30.095Z,18.23
2018-10-05T13:16:03.892Z,18.20
2018-10-05T13:18:34.721Z,18.17
2018-10-05T13:21:05.157Z,18.15
2018-10-05T13:23:35.297Z,18.13
2018-10-05T13:26:05.457Z,18.11
2018-10-05T13:28:35.459Z,18.11
2018-10-05T13:31:06.484Z,18.10
2018-10-05T13:33:36.425Z,18.10
2018-10-05T13:36:05.999Z,18.10
2018-10-05T13:38:36.019Z,18.12
2018-10-05T13:41:06.204Z,18.15
2018-10-05T13:43:36.253Z,18.08
2018-10-05T13:46:05.809Z,18.03
2018-10-05T13:48:35.636Z,17.98
2018-10-05T13:51:05.679Z,17.99
2018-10-05T13:53:35.765Z,18.01
2018-10-05T13:56:06.098Z,18.05
2018-10-05T13:58:35.834Z,17.98
2018-10-05T14:01:06.730Z,17.92
2018-10-05T14:03:36.152Z,17.87
2018-10-05T14:06:06.346Z,17.92
2018-10-05T14:08:35.862Z,18.04
2018-10-05T14:11:05.770Z,18.07
2018-10-05T14:13:35.428Z,18.02
2018-10-05T14:16:05.141Z,18.01
2018-10-05T14:18:34.572Z,17.94
2018-10-05T14:21:04.422Z,17.94
2018-10-05T14:23:34.459Z,17.94
2018-10-05T14:26:04.523Z,17.91
2018-10-05T14:28:35.228Z,17.90
2018-10-05T14:31:04.800Z,17.94
2018-10-05T14:33:34.739Z,17.84
2018-10-05T14:36:04.528Z,17.73
2018-10-05T14:38:34.261Z,17.66
2018-10-05T14:41:04.018Z,17.61
2018-10-05T14:43:35.548Z,17.65
2018-10-05T14:46:05.487Z,17.61
2018-10-05T14:48:34.953Z,17.58
2018-10-05T14:51:05.125Z,17.56
2018-10-05T14:53:34.734Z,17.49
2018-10-05T14:56:04.931Z,17.38
2018-10-05T14:58:35.171Z,17.35
2018-10-05T15:01:04.946Z,17.40
2018-10-05T15:03:34.722Z,17.32
2018-10-05T15:06:04.742Z,17.24
2018-10-05T15:08:35.736Z,17.16
2018-10-05T15:13:45.380Z,17.15
2018-10-05T15:16:15.075Z,17.08
2018-10-05T15:18:44.666Z,17.03
2018-10-05T15:21:24.505Z,17.03
2018-10-05T15:23:54.260Z,17.25
2018-10-05T15:26:23.894Z,17.27
2018-10-05T15:28:53.809Z,17.24
2018-10-05T15:31:26.082Z,17.13
2018-10-05T15:33:56.750Z,17.06
2018-10-05T15:36:27.212Z,17.02
2018-10-05T15:38:57.684Z,16.97
2018-10-05T15:41:30.950Z,16.93
2018-10-05T15:44:03.156Z,16.97
2018-10-05T15:47:10.610Z,17.16
2018-10-05T15:49:51.302Z,16.94
2018-10-05T15:52:23.743Z,16.73
2018-10-05T15:54:54.890Z,16.48
2018-10-05T15:57:25.321Z,16.36
2018-10-05T15:59:54.922Z,16.33
2018-10-05T16:02:28.355Z,16.35
2018-10-05T16:05:03.729Z,16.26
2018-10-05T16:07:33.622Z,16.12
2018-10-05T16:10:08.701Z,16.09
2018-10-05T16:12:39.946Z,15.97
2018-10-05T16:15:09.651Z,15.83
2018-10-05T16:17:39.606Z,15.74
2018-10-05T16:20:09.442Z,15.65
2018-10-05T16:22:41.138Z,15.55
2018-10-05T16:25:11.889Z,15.47
2018-10-05T16:27:43.255Z,15.35
2018-10-05T16:30:17.685Z,15.24
2018-10-05T16:32:49.301Z,15.06
2018-10-05T16:35:19.327Z,14.95
2018-10-05T16:37:49.960Z,14.83
2018-10-05T16:40:19.919Z,14.73
2018-10-05T16:42:52.041Z,14.62
2018-10-05T16:45:21.822Z,14.57
2018-10-05T16:47:51.541Z,14.48
2018-10-05T16:50:21.388Z,14.34
2018-10-05T16:52:51.480Z,14.26
2018-10-05T16:55:21.722Z,14.19
2018-10-05T16:57:54.726Z,14.12
2018-10-05T17:00:28.007Z,14.07
2018-10-05T17:02:57.857Z,14.03
2018-10-05T17:05:27.380Z,13.97
2018-10-05T17:07:57.629Z,13.85
2018-10-05T17:13:22.211Z,13.79
2018-10-05T17:16:13.319Z,13.75
2018-10-05T17:18:43.551Z,13.70
2018-10-05T17:21:13.569Z,13.63
2018-10-05T17:23:43.545Z,13.54
2018-10-05T17:26:13.063Z,13.45
2018-10-05T17:28:42.499Z,13.41
2018-10-05T17:31:12.335Z,13.35
2018-10-05T17:33:42.266Z,13.33
2018-10-05T17:36:11.963Z,13.30
2018-10-05T17:38:41.778Z,13.23
2018-10-05T17:41:11.303Z,13.13
2018-10-05T17:43:41.259Z,12.97
2018-10-05T17:46:11.127Z,12.96
2018-10-05T17:48:40.612Z,12.93
2018-10-05T17:51:10.855Z,12.95
2018-10-05T17:53:40.297Z,13.01
2018-10-05T17:56:10.429Z,12.92
2018-10-05T17:58:40.022Z,12.93
2018-10-05T18:01:09.499Z,12.91
2018-10-05T18:03:39.001Z,12.91
2018-10-05T18:06:08.487Z,12.90
2018-10-05T18:08:38.295Z,12.87
2018-10-05T18:11:08.223Z,12.77
2018-10-05T18:13:38.275Z,12.68
2018-10-05T18:16:08.691Z,12.60
2018-10-05T18:18:38.062Z,12.57
2018-10-05T18:21:07.571Z,12.62
2018-10-05T18:23:37.707Z,12.52
2018-10-05T18:26:07.223Z,12.56
2018-10-05T18:28:37.146Z,12.48
2018-10-05T18:31:06.623Z,12.38
2018-10-05T18:33:36.183Z,12.32
2018-10-05T18:36:06.024Z,12.23
2018-10-05T18:38:35.771Z,12.13
2018-10-05T18:41:05.795Z,12.09
2018-10-05T18:43:35.261Z,12.11
2018-10-05T18:46:05.154Z,12.09
2018-10-05T18:48:34.651Z,11.99
2018-10-05T18:51:04.148Z,11.93
2018-10-05T18:53:33.946Z,11.87
2018-10-05T18:56:16.576Z,11.85
2018-10-05T18:58:46.474Z,11.82
2018-10-05T19:01:16.914Z,11.86
2018-10-05T19:03:47.208Z,11.85
2018-10-05T19:06:17.074Z,11.81
2018-10-05T19:08:46.669Z,11.80
2018-10-05T19:11:16.806Z,11.72
2018-10-05T19:13:48.036Z,11.66
2018-10-05T19:16:17.591Z,11.59
2018-10-05T19:18:47.238Z,11.53
2018-10-05T19:21:16.780Z,11.50
2018-10-05T19:23:46.292Z,11.46
2018-10-05T19:26:16.265Z,11.49
2018-10-05T19:28:46.168Z,11.42
2018-10-05T19:31:15.709Z,11.39
2018-10-05T19:33:45.222Z,11.38
2018-10-05T19:36:14.724Z,11.35
2018-10-05T19:38:44.210Z,11.31
2018-10-05T19:41:13.724Z,11.39
2018-10-05T19:43:43.911Z,11.33
2018-10-05T19:46:14.071Z,11.30
2018-10-05T19:48:44.101Z,11.28
2018-10-05T19:51:14.265Z,11.29
2018-10-05T19:53:44.375Z,11.31
2018-10-05T19:56:13.850Z,11.31
2018-10-05T19:58:43.445Z,11.33
2018-10-05T20:01:13.508Z,11.51
2018-10-05T20:03:43.167Z,11.41
2018-10-05T20:06:12.682Z,11.51
2018-10-05T20:08:42.169Z,11.46
2018-10-05T20:11:12.076Z,11.43
2018-10-05T20:13:41.952Z,11.45
2018-10-05T20:16:12.350Z,11.39
2018-10-05T20:18:42.253Z,11.31
2018-10-05T20:21:11.700Z,11.29
2018-10-05T20:23:41.104Z,11.33
2018-10-05T20:26:10.990Z,11.51
2018-10-05T20:28:40.841Z,11.46
2018-10-05T20:31:10.251Z,11.50
2018-10-05T20:33:39.742Z,11.39
2018-10-05T20:36:09.270Z,11.38
2018-10-05T20:38:38.620Z,11.24
2018-10-05T20:41:07.991Z,11.17
2018-10-05T20:43:37.435Z,11.24
2018-10-05T20:46:06.842Z,11.15
2018-10-05T20:48:36.342Z,11.07
2018-10-05T20:51:05.745Z,11.09
2018-10-05T20:53:35.226Z,11.04
2018-10-05T20:56:04.634Z,11.02
2018-10-05T20:58:34.092Z,10.94
2018-10-05T21:01:03.539Z,10.87
2018-10-05T21:03:33.310Z,10.82
2018-10-05T21:06:03.049Z,10.85
2018-10-05T21:08:37.876Z,10.78
2018-10-05T21:11:07.766Z,10.86
2018-10-05T21:13:37.810Z,10.82
2018-10-05T21:16:07.285Z,10.68
2018-10-05T21:18:37.124Z,10.60
2018-10-05T21:21:06.679Z,10.51
2018-10-05T21:23:36.295Z,10.54
2018-10-05T21:26:06.202Z,10.48
2018-10-05T21:28:35.685Z,10.47
2018-10-05T21:31:05.121Z,10.43
2018-10-05T21:33:34.642Z,10.42
2018-10-05T21:36:04.534Z,10.40
2018-10-05T21:38:34.026Z,10.44
2018-10-05T21:41:03.557Z,10.50
2018-10-05T21:43:33.383Z,10.50
2018-10-05T21:46:03.196Z,10.50
2018-10-05T21:48:32.658Z,10.47
2018-10-05T21:51:02.130Z,10.47
2018-10-05T21:53:31.573Z,10.45
2018-10-05T21:56:01.012Z,10.44
2018-10-05T21:58:30.425Z,10.43
2018-10-05T22:01:00.181Z,10.41
2018-10-05T22:03:30.629Z,10.46
2018-10-05T22:06:00.493Z,10.57
2018-10-05T22:08:29.954Z,10.64
2018-10-05T22:10:59.380Z,10.70
2018-10-05T22:13:29.261Z,10.71
2018-10-05T22:15:59.018Z,10.76
2018-10-05T22:18:28.778Z,10.76
2018-10-05T22:20:58.172Z,10.68
2018-10-05T22:23:27.585Z,10.82
2018-10-05T22:25:57.389Z,10.76
2018-10-05T22:28:27.201Z,10.83
2018-10-05T22:30:56.932Z,10.81
2018-10-05T22:33:26.709Z,10.84
2018-10-05T22:35:56.083Z,10.79
2018-10-05T22:38:25.836Z,10.66
2018-10-05T22:40:55.260Z,10.65
2018-10-05T22:43:24.973Z,10.70
2018-10-05T22:45:54.353Z,10.62
2018-10-05T22:48:24.696Z,10.55
2018-10-05T22:50:54.084Z,10.53
2018-10-05T22:53:24.072Z,10.50
2018-10-05T22:55:53.504Z,10.54
2018-10-05T22:58:23.248Z,10.56
2018-10-05T23:00:53.169Z,10.56
2018-10-05T23:03:22.941Z,10.55
2018-10-05T23:05:52.709Z,10.52
2018-10-05T23:08:22.189Z,10.51
2018-10-05T23:10:51.665Z,10.48
2018-10-05T23:13:21.540Z,10.46
2018-10-05T23:15:50.948Z,10.50
2018-10-05T23:18:20.725Z,10.52
2018-10-05T23:20:50.649Z,10.54
2018-10-05T23:23:20.094Z,10.51
2018-10-05T23:25:49.481Z,10.57
2018-10-05T23:28:18.896Z,10.56
2018-10-05T23:30:48.262Z,10.51
2018-10-05T23:33:18.131Z,10.44
2018-10-05T23:35:47.912Z,10.44
2018-10-05T23:38:17.364Z,10.38
2018-10-05T23:40:47.212Z,10.30
2018-10-05T23:43:16.933Z,10.27
2018-10-05T23:45:46.804Z,10.20
2018-10-05T23:48:16.299Z,10.21
2018-10-05T23:50:46.151Z,10.26
2018-10-05T23:53:15.884Z,10.24
2018-10-05T23:55:45.406Z,10.22
2018-10-05T23:58:15.199Z,10.17
